sensor_id;sensor_type;location;lat;lon;timestamp;pressure;altitude;pressure_sealevel;temperature;humidity
79037;BME280;68434;59.896;30.474;2023-04-07T00:00:30;103125.09;;;4.32;46.83
79037;BME280;68434;59.896;30.474;2023-04-07T00:03:01;103126.00;;;4.31;46.61
79037;BME280;68434;59.896;30.474;2023-04-07T00:05:34;103132.97;;;4.37;47.01
79037;BME280;68434;59.896;30.474;2023-04-07T00:08:07;103105.81;;;4.23;47.18
79037;BME280;68434;59.896;30.474;2023-04-07T00:10:38;103121.59;;;4.30;47.10
79037;BME280;68434;59.896;30.474;2023-04-07T00:13:07;103117.03;;;4.09;46.68
79037;BME280;68434;59.896;30.474;2023-04-07T00:15:35;103131.78;;;4.21;47.01
79037;BME280;68434;59.896;30.474;2023-04-07T00:18:02;103131.16;;;4.14;47.25
79037;BME280;68434;59.896;30.474;2023-04-07T00:20:30;103131.31;;;4.10;47.45
79037;BME280;68434;59.896;30.474;2023-04-07T00:22:58;103123.16;;;4.13;47.28
79037;BME280;68434;59.896;30.474;2023-04-07T00:25:26;103123.38;;;4.07;47.66
79037;BME280;68434;59.896;30.474;2023-04-07T00:27:54;103118.03;;;4.07;47.31
79037;BME280;68434;59.896;30.474;2023-04-07T00:30:23;103125.13;;;4.08;47.59
79037;BME280;68434;59.896;30.474;2023-04-07T00:32:51;103126.97;;;4.06;47.20
79037;BME280;68434;59.896;30.474;2023-04-07T00:35:19;103129.31;;;3.92;47.30
79037;BME280;68434;59.896;30.474;2023-04-07T00:37:46;103130.25;;;3.89;48.07
79037;BME280;68434;59.896;30.474;2023-04-07T00:40:14;103118.69;;;3.88;47.28
79037;BME280;68434;59.896;30.474;2023-04-07T00:42:43;103127.00;;;3.81;48.10
79037;BME280;68434;59.896;30.474;2023-04-07T00:45:11;103114.84;;;3.71;47.85
79037;BME280;68434;59.896;30.474;2023-04-07T00:47:40;103128.69;;;3.83;48.05
79037;BME280;68434;59.896;30.474;2023-04-07T00:50:08;103123.28;;;3.85;48.00
79037;BME280;68434;59.896;30.474;2023-04-07T00:52:36;103120.88;;;3.77;47.79
79037;BME280;68434;59.896;30.474;2023-04-07T00:55:04;103120.91;;;3.76;47.95
79037;BME280;68434;59.896;30.474;2023-04-07T00:57:32;103116.72;;;3.69;48.32
79037;BME280;68434;59.896;30.474;2023-04-07T01:00:00;103116.72;;;3.69;48.30
79037;BME280;68434;59.896;30.474;2023-04-07T01:02:34;103122.34;;;3.61;48.40
79037;BME280;68434;59.896;30.474;2023-04-07T01:05:10;103121.47;;;3.61;48.25
79037;BME280;68434;59.896;30.474;2023-04-07T01:07:39;103125.81;;;3.63;48.42
79037;BME280;68434;59.896;30.474;2023-04-07T01:10:15;103121.66;;;3.55;48.92
79037;BME280;68434;59.896;30.474;2023-04-07T01:12:57;103123.56;;;3.51;48.83
79037;BME280;68434;59.896;30.474;2023-04-07T01:15:29;103127.34;;;3.46;48.68
79037;BME280;68434;59.896;30.474;2023-04-07T01:18:03;103124.50;;;3.50;49.17
79037;BME280;68434;59.896;30.474;2023-04-07T01:20:36;103120.84;;;3.53;48.58
79037;BME280;68434;59.896;30.474;2023-04-07T01:23:06;103121.94;;;3.47;48.76
79037;BME280;68434;59.896;30.474;2023-04-07T01:26:01;103119.25;;;3.47;48.93
79037;BME280;68434;59.896;30.474;2023-04-07T01:28:48;103122.88;;;3.46;49.11
79037;BME280;68434;59.896;30.474;2023-04-07T01:31:25;103123.78;;;3.45;48.96
79037;BME280;68434;59.896;30.474;2023-04-07T01:33:56;103119.34;;;3.44;49.09
79037;BME280;68434;59.896;30.474;2023-04-07T01:36:26;103124.03;;;3.38;48.66
79037;BME280;68434;59.896;30.474;2023-04-07T01:38:55;103116.94;;;3.37;49.22
79037;BME280;68434;59.896;30.474;2023-04-07T01:41:24;103122.28;;;3.37;49.19
79037;BME280;68434;59.896;30.474;2023-04-07T01:43:53;103133.16;;;3.32;49.03
79037;BME280;68434;59.896;30.474;2023-04-07T01:46:23;103122.50;;;3.31;49.30
79037;BME280;68434;59.896;30.474;2023-04-07T01:48:52;103116.41;;;3.26;49.79
79037;BME280;68434;59.896;30.474;2023-04-07T01:51:21;103125.47;;;3.22;49.59
79037;BME280;68434;59.896;30.474;2023-04-07T01:53:50;103130.94;;;3.19;49.35
79037;BME280;68434;59.896;30.474;2023-04-07T01:56:18;103123.06;;;3.14;49.83
79037;BME280;68434;59.896;30.474;2023-04-07T01:58:50;103129.03;;;3.22;49.43
79037;BME280;68434;59.896;30.474;2023-04-07T02:01:20;103130.03;;;3.18;50.26
79037;BME280;68434;59.896;30.474;2023-04-07T02:03:53;103128.56;;;3.10;50.30
79037;BME280;68434;59.896;30.474;2023-04-07T02:06:24;103125.09;;;3.06;50.45
79037;BME280;68434;59.896;30.474;2023-04-07T02:08:57;103123.31;;;3.07;50.07
79037;BME280;68434;59.896;30.474;2023-04-07T02:11:28;103119.00;;;3.03;50.09
79037;BME280;68434;59.896;30.474;2023-04-07T02:14:03;103124.59;;;2.95;50.92
79037;BME280;68434;59.896;30.474;2023-04-07T02:16:42;103120.28;;;2.90;50.77
79037;BME280;68434;59.896;30.474;2023-04-07T02:19:12;103117.56;;;2.91;51.00
79037;BME280;68434;59.896;30.474;2023-04-07T02:21:41;103127.41;;;2.91;51.27
79037;BME280;68434;59.896;30.474;2023-04-07T02:24:10;103125.63;;;2.90;50.67
79037;BME280;68434;59.896;30.474;2023-04-07T02:26:38;103127.50;;;2.88;50.90
79037;BME280;68434;59.896;30.474;2023-04-07T02:29:06;103127.41;;;2.91;51.37
79037;BME280;68434;59.896;30.474;2023-04-07T02:31:35;103129.34;;;2.86;51.16
79037;BME280;68434;59.896;30.474;2023-04-07T02:34:03;103133.00;;;2.83;51.49
79037;BME280;68434;59.896;30.474;2023-04-07T02:36:33;103136.50;;;2.84;50.96
79037;BME280;68434;59.896;30.474;2023-04-07T02:39:00;103134.03;;;2.78;51.20
79037;BME280;68434;59.896;30.474;2023-04-07T02:41:28;103133.03;;;2.82;51.52
79037;BME280;68434;59.896;30.474;2023-04-07T02:43:56;103123.44;;;2.75;51.68
79037;BME280;68434;59.896;30.474;2023-04-07T02:46:23;103128.72;;;2.76;51.73
79037;BME280;68434;59.896;30.474;2023-04-07T02:48:51;103127.78;;;2.79;51.83
79037;BME280;68434;59.896;30.474;2023-04-07T02:51:19;103121.41;;;2.83;52.04
79037;BME280;68434;59.896;30.474;2023-04-07T02:53:48;103133.75;;;2.87;51.18
79037;BME280;68434;59.896;30.474;2023-04-07T02:56:15;103135.56;;;2.86;51.69
79037;BME280;68434;59.896;30.474;2023-04-07T02:58:43;103128.44;;;2.85;51.13
79037;BME280;68434;59.896;30.474;2023-04-07T03:01:11;103133.97;;;2.79;52.04
79037;BME280;68434;59.896;30.474;2023-04-07T03:03:39;103134.09;;;2.76;52.04
79037;BME280;68434;59.896;30.474;2023-04-07T03:06:20;103141.28;;;2.74;51.78
79037;BME280;68434;59.896;30.474;2023-04-07T03:09:15;103136.91;;;2.72;51.90
79037;BME280;68434;59.896;30.474;2023-04-07T03:11:43;103129.66;;;2.75;52.62
79037;BME280;68434;59.896;30.474;2023-04-07T03:14:11;103122.53;;;2.76;51.96
79037;BME280;68434;59.896;30.474;2023-04-07T03:16:45;103114.91;;;2.64;52.42
79037;BME280;68434;59.896;30.474;2023-04-07T03:19:14;103137.88;;;2.69;52.63
79037;BME280;68434;59.896;30.474;2023-04-07T03:21:48;103128.94;;;2.70;52.59
79037;BME280;68434;59.896;30.474;2023-04-07T03:24:17;103125.13;;;2.79;52.18
79037;BME280;68434;59.896;30.474;2023-04-07T03:26:45;103123.38;;;2.76;52.14
79037;BME280;68434;59.896;30.474;2023-04-07T03:29:22;103130.38;;;2.82;51.70
79037;BME280;68434;59.896;30.474;2023-04-07T03:31:51;103130.56;;;2.76;51.86
79037;BME280;68434;59.896;30.474;2023-04-07T03:34:22;103137.34;;;2.86;52.49
79037;BME280;68434;59.896;30.474;2023-04-07T03:36:50;103139.19;;;2.84;52.54
79037;BME280;68434;59.896;30.474;2023-04-07T03:39:19;103142.06;;;2.78;52.80
79037;BME280;68434;59.896;30.474;2023-04-07T03:41:48;103144.09;;;2.70;53.10
79037;BME280;68434;59.896;30.474;2023-04-07T03:44:17;103144.09;;;2.70;53.10
79037;BME280;68434;59.896;30.474;2023-04-07T03:46:45;103142.44;;;2.66;52.90
79037;BME280;68434;59.896;30.474;2023-04-07T03:49:16;103133.22;;;2.76;53.23
79037;BME280;68434;59.896;30.474;2023-04-07T03:51:44;103138.38;;;2.82;52.87
79037;BME280;68434;59.896;30.474;2023-04-07T03:54:15;103135.06;;;2.74;52.59
79037;BME280;68434;59.896;30.474;2023-04-07T03:56:45;103140.25;;;2.78;53.25
79037;BME280;68434;59.896;30.474;2023-04-07T03:59:16;103138.00;;;2.65;53.34
79037;BME280;68434;59.896;30.474;2023-04-07T04:01:55;103116.78;;;2.60;53.16
79037;BME280;68434;59.896;30.474;2023-04-07T04:04:25;103136.13;;;2.68;53.73
79037;BME280;68434;59.896;30.474;2023-04-07T04:06:54;103140.72;;;2.63;53.28
79037;BME280;68434;59.896;30.474;2023-04-07T04:09:33;103131.53;;;2.44;53.18
79037;BME280;68434;59.896;30.474;2023-04-07T04:12:02;103127.69;;;2.53;53.58
79037;BME280;68434;59.896;30.474;2023-04-07T04:14:32;103147.81;;;2.64;53.55
79037;BME280;68434;59.896;30.474;2023-04-07T04:17:02;103136.66;;;2.52;53.10
79037;BME280;68434;59.896;30.474;2023-04-07T04:19:35;103151.66;;;2.56;53.54
79037;BME280;68434;59.896;30.474;2023-04-07T04:22:12;103140.78;;;2.62;53.36
79037;BME280;68434;59.896;30.474;2023-04-07T04:24:48;103133.09;;;2.51;53.90
79037;BME280;68434;59.896;30.474;2023-04-07T04:27:17;103154.06;;;2.65;53.96
79037;BME280;68434;59.896;30.474;2023-04-07T04:29:50;103153.91;;;2.69;53.16
79037;BME280;68434;59.896;30.474;2023-04-07T04:32:29;103151.09;;;2.74;53.04
79037;BME280;68434;59.896;30.474;2023-04-07T04:34:58;103148.47;;;2.72;53.63
79037;BME280;68434;59.896;30.474;2023-04-07T04:37:27;103152.94;;;2.72;53.55
79037;BME280;68434;59.896;30.474;2023-04-07T04:39:55;103143.13;;;2.72;53.40
79037;BME280;68434;59.896;30.474;2023-04-07T04:42:25;103143.81;;;2.79;53.50
79037;BME280;68434;59.896;30.474;2023-04-07T04:44:57;103161.41;;;2.86;52.94
79037;BME280;68434;59.896;30.474;2023-04-07T04:47:25;103159.63;;;2.86;53.17
79037;BME280;68434;59.896;30.474;2023-04-07T04:49:53;103158.34;;;2.98;52.55
79037;BME280;68434;59.896;30.474;2023-04-07T04:52:21;103154.03;;;2.94;53.12
79037;BME280;68434;59.896;30.474;2023-04-07T04:54:49;103155.97;;;2.89;53.13
79037;BME280;68434;59.896;30.474;2023-04-07T04:57:18;103160.03;;;3.00;53.13
79037;BME280;68434;59.896;30.474;2023-04-07T04:59:47;103151.78;;;3.08;52.86
79037;BME280;68434;59.896;30.474;2023-04-07T05:02:14;103148.88;;;3.15;52.32
79037;BME280;68434;59.896;30.474;2023-04-07T05:04:42;103158.38;;;3.25;51.82
79037;BME280;68434;59.896;30.474;2023-04-07T05:07:22;103152.06;;;3.26;51.91
79037;BME280;68434;59.896;30.474;2023-04-07T05:09:51;103156.38;;;3.30;51.96
79037;BME280;68434;59.896;30.474;2023-04-07T05:12:20;103150.63;;;3.42;52.09
79037;BME280;68434;59.896;30.474;2023-04-07T05:14:55;103155.78;;;3.48;52.54
79037;BME280;68434;59.896;30.474;2023-04-07T05:17:23;103151.25;;;3.50;51.62
79037;BME280;68434;59.896;30.474;2023-04-07T05:19:50;103158.09;;;3.59;51.46
79037;BME280;68434;59.896;30.474;2023-04-07T05:22:30;103150.94;;;3.59;51.64
79037;BME280;68434;59.896;30.474;2023-04-07T05:24:58;103154.09;;;3.72;51.01
79037;BME280;68434;59.896;30.474;2023-04-07T05:27:26;103142.41;;;4.47;49.81
79037;BME280;68434;59.896;30.474;2023-04-07T05:30:01;103138.59;;;6.03;45.62
79037;BME280;68434;59.896;30.474;2023-04-07T05:32:37;103137.78;;;7.14;43.32
79037;BME280;68434;59.896;30.474;2023-04-07T05:35:14;103135.41;;;7.60;42.87
79037;BME280;68434;59.896;30.474;2023-04-07T05:37:49;103123.53;;;7.82;41.55
79037;BME280;68434;59.896;30.474;2023-04-07T05:40:17;103135.09;;;8.01;41.22
79037;BME280;68434;59.896;30.474;2023-04-07T05:42:45;103137.88;;;7.82;40.84
79037;BME280;68434;59.896;30.474;2023-04-07T05:45:15;103130.81;;;7.45;42.17
79037;BME280;68434;59.896;30.474;2023-04-07T05:47:46;103119.97;;;7.47;41.14
79037;BME280;68434;59.896;30.474;2023-04-07T05:50:20;103120.44;;;8.23;40.53
79037;BME280;68434;59.896;30.474;2023-04-07T05:52:49;103122.25;;;8.71;38.75
79037;BME280;68434;59.896;30.474;2023-04-07T05:55:26;103121.84;;;8.94;39.00
79037;BME280;68434;59.896;30.474;2023-04-07T05:57:54;103118.97;;;8.66;39.06
79037;BME280;68434;59.896;30.474;2023-04-07T06:00:26;103118.41;;;8.59;38.52
79037;BME280;68434;59.896;30.474;2023-04-07T06:03:09;103123.47;;;8.65;39.64
79037;BME280;68434;59.896;30.474;2023-04-07T06:05:50;103124.78;;;8.74;38.67
79037;BME280;68434;59.896;30.474;2023-04-07T06:08:20;103122.94;;;8.59;39.49
79037;BME280;68434;59.896;30.474;2023-04-07T06:10:47;103118.44;;;8.75;38.20
79037;BME280;68434;59.896;30.474;2023-04-07T06:13:15;103123.75;;;9.23;38.25
79037;BME280;68434;59.896;30.474;2023-04-07T06:15:44;103126.19;;;9.73;37.09
79037;BME280;68434;59.896;30.474;2023-04-07T06:18:12;103108.72;;;10.36;35.70
79037;BME280;68434;59.896;30.474;2023-04-07T06:20:39;103113.56;;;10.17;35.98
79037;BME280;68434;59.896;30.474;2023-04-07T06:23:07;103108.47;;;9.97;36.43
79037;BME280;68434;59.896;30.474;2023-04-07T06:25:35;103118.22;;;10.43;35.45
79037;BME280;68434;59.896;30.474;2023-04-07T06:28:02;103115.78;;;11.21;32.75
79037;BME280;68434;59.896;30.474;2023-04-07T06:30:30;103108.88;;;12.94;30.13
79037;BME280;68434;59.896;30.474;2023-04-07T06:33:00;103099.19;;;14.19;29.30
79037;BME280;68434;59.896;30.474;2023-04-07T06:38:32;103107.31;;;13.97;27.63
79037;BME280;68434;59.896;30.474;2023-04-07T06:41:00;103100.78;;;14.10;27.82
79037;BME280;68434;59.896;30.474;2023-04-07T06:43:28;103107.41;;;14.30;27.67
79037;BME280;68434;59.896;30.474;2023-04-07T06:46:01;103104.66;;;13.73;27.30
79037;BME280;68434;59.896;30.474;2023-04-07T06:48:30;103106.00;;;14.13;27.14
79037;BME280;68434;59.896;30.474;2023-04-07T06:50:57;103107.44;;;13.95;27.71
79037;BME280;68434;59.896;30.474;2023-04-07T06:53:25;103105.25;;;13.66;27.85
79037;BME280;68434;59.896;30.474;2023-04-07T06:56:02;103107.34;;;14.08;27.25
79037;BME280;68434;59.896;30.474;2023-04-07T06:58:30;103105.56;;;14.85;27.35
79037;BME280;68434;59.896;30.474;2023-04-07T07:00:59;103110.34;;;15.37;26.64
79037;BME280;68434;59.896;30.474;2023-04-07T07:03:28;103102.66;;;15.20;26.54
79037;BME280;68434;59.896;30.474;2023-04-07T07:05:58;103105.13;;;14.02;27.21
79037;BME280;68434;59.896;30.474;2023-04-07T07:08:27;103115.59;;;12.27;29.93
79037;BME280;68434;59.896;30.474;2023-04-07T07:10:55;103118.84;;;11.56;31.74
79037;BME280;68434;59.896;30.474;2023-04-07T07:13:24;103115.06;;;12.10;30.84
79037;BME280;68434;59.896;30.474;2023-04-07T07:15:52;103108.94;;;13.41;30.01
79037;BME280;68434;59.896;30.474;2023-04-07T07:18:20;103101.88;;;14.42;28.09
79037;BME280;68434;59.896;30.474;2023-04-07T07:20:47;103104.88;;;15.26;26.40
79037;BME280;68434;59.896;30.474;2023-04-07T07:23:17;103101.28;;;16.09;25.60
79037;BME280;68434;59.896;30.474;2023-04-07T07:25:44;103096.31;;;15.94;25.21
79037;BME280;68434;59.896;30.474;2023-04-07T07:28:12;103098.28;;;17.03;24.10
79037;BME280;68434;59.896;30.474;2023-04-07T07:30:40;103091.09;;;17.70;23.15
79037;BME280;68434;59.896;30.474;2023-04-07T07:33:07;103091.94;;;17.70;23.05
79037;BME280;68434;59.896;30.474;2023-04-07T07:35:35;103088.81;;;17.16;22.83
79037;BME280;68434;59.896;30.474;2023-04-07T07:38:03;103092.19;;;17.29;23.29
79037;BME280;68434;59.896;30.474;2023-04-07T07:40:32;103095.09;;;16.88;23.81
79037;BME280;68434;59.896;30.474;2023-04-07T07:43:00;103101.94;;;16.02;24.55
79037;BME280;68434;59.896;30.474;2023-04-07T07:45:30;103100.34;;;16.20;24.87
79037;BME280;68434;59.896;30.474;2023-04-07T07:47:58;103088.97;;;16.15;25.51
79037;BME280;68434;59.896;30.474;2023-04-07T07:50:25;103097.94;;;15.85;25.54
79037;BME280;68434;59.896;30.474;2023-04-07T07:52:53;103095.50;;;15.08;25.39
79037;BME280;68434;59.896;30.474;2023-04-07T07:55:21;103099.25;;;14.41;26.08
79037;BME280;68434;59.896;30.474;2023-04-07T07:57:50;103095.91;;;13.81;27.12
79037;BME280;68434;59.896;30.474;2023-04-07T08:00:18;103092.00;;;13.72;27.70
79037;BME280;68434;59.896;30.474;2023-04-07T08:02:46;103092.72;;;13.98;27.18
79037;BME280;68434;59.896;30.474;2023-04-07T08:05:14;103096.78;;;13.58;27.58
79037;BME280;68434;59.896;30.474;2023-04-07T08:07:42;103101.78;;;13.40;28.10
79037;BME280;68434;59.896;30.474;2023-04-07T08:10:09;103090.13;;;13.62;27.89
79037;BME280;68434;59.896;30.474;2023-04-07T08:12:38;103093.06;;;13.59;27.97
79037;BME280;68434;59.896;30.474;2023-04-07T08:15:08;103090.25;;;13.37;28.22
79037;BME280;68434;59.896;30.474;2023-04-07T08:17:36;103094.56;;;12.92;28.61
79037;BME280;68434;59.896;30.474;2023-04-07T08:20:05;103087.38;;;13.03;28.14
79037;BME280;68434;59.896;30.474;2023-04-07T08:22:33;103095.41;;;13.05;28.20
79037;BME280;68434;59.896;30.474;2023-04-07T08:25:01;103092.69;;;12.31;29.87
79037;BME280;68434;59.896;30.474;2023-04-07T08:27:29;103096.56;;;11.77;30.66
79037;BME280;68434;59.896;30.474;2023-04-07T08:30:01;103093.94;;;11.76;30.64
79037;BME280;68434;59.896;30.474;2023-04-07T08:32:36;103098.66;;;11.60;30.99
79037;BME280;68434;59.896;30.474;2023-04-07T08:35:04;103094.34;;;11.04;31.32
79037;BME280;68434;59.896;30.474;2023-04-07T08:37:32;103091.59;;;11.18;32.18
79037;BME280;68434;59.896;30.474;2023-04-07T08:40:01;103102.34;;;11.05;32.06
79037;BME280;68434;59.896;30.474;2023-04-07T08:42:31;103095.34;;;10.89;31.63
79037;BME280;68434;59.896;30.474;2023-04-07T08:45:02;103091.44;;;10.93;32.14
79037;BME280;68434;59.896;30.474;2023-04-07T08:47:32;103091.25;;;10.96;31.71
79037;BME280;68434;59.896;30.474;2023-04-07T08:50:02;103095.28;;;10.48;32.38
79037;BME280;68434;59.896;30.474;2023-04-07T08:52:33;103092.75;;;10.73;32.58
79037;BME280;68434;59.896;30.474;2023-04-07T08:55:03;103092.41;;;10.65;32.26
79037;BME280;68434;59.896;30.474;2023-04-07T08:57:32;103083.41;;;10.51;32.29
79037;BME280;68434;59.896;30.474;2023-04-07T09:00:01;103081.97;;;10.45;32.14
79037;BME280;68434;59.896;30.474;2023-04-07T09:02:32;103083.78;;;10.45;32.79
79037;BME280;68434;59.896;30.474;2023-04-07T09:05:03;103085.34;;;10.49;32.99
79037;BME280;68434;59.896;30.474;2023-04-07T09:07:32;103081.19;;;10.57;32.85
79037;BME280;68434;59.896;30.474;2023-04-07T09:10:00;103078.66;;;10.68;32.99
79037;BME280;68434;59.896;30.474;2023-04-07T09:12:30;103077.75;;;10.82;33.16
79037;BME280;68434;59.896;30.474;2023-04-07T09:14:58;103079.84;;;10.50;32.71
79037;BME280;68434;59.896;30.474;2023-04-07T09:17:26;103068.63;;;10.42;33.06
79037;BME280;68434;59.896;30.474;2023-04-07T09:19:55;103076.25;;;10.36;32.54
79037;BME280;68434;59.896;30.474;2023-04-07T09:22:39;103075.66;;;10.45;33.45
79037;BME280;68434;59.896;30.474;2023-04-07T09:25:15;103065.91;;;10.42;32.78
79037;BME280;68434;59.896;30.474;2023-04-07T09:27:57;103070.44;;;10.42;33.19
79037;BME280;68434;59.896;30.474;2023-04-07T09:30:26;103066.94;;;10.68;32.99
79037;BME280;68434;59.896;30.474;2023-04-07T09:32:54;103058.59;;;10.44;32.91
79037;BME280;68434;59.896;30.474;2023-04-07T09:35:22;103063.22;;;10.56;32.93
79037;BME280;68434;59.896;30.474;2023-04-07T09:38:02;103059.22;;;10.48;32.21
79037;BME280;68434;59.896;30.474;2023-04-07T09:40:30;103056.72;;;10.45;32.83
79037;BME280;68434;59.896;30.474;2023-04-07T09:42:57;103049.78;;;10.41;32.92
79037;BME280;68434;59.896;30.474;2023-04-07T09:45:26;103053.75;;;10.21;33.00
79037;BME280;68434;59.896;30.474;2023-04-07T09:47:54;103049.19;;;10.36;33.58
79037;BME280;68434;59.896;30.474;2023-04-07T09:50:30;103058.63;;;10.57;33.32
79037;BME280;68434;59.896;30.474;2023-04-07T09:53:01;103050.91;;;10.51;33.40
79037;BME280;68434;59.896;30.474;2023-04-07T09:55:30;103056.72;;;10.59;33.53
79037;BME280;68434;59.896;30.474;2023-04-07T09:57:59;103046.19;;;10.40;33.41
79037;BME280;68434;59.896;30.474;2023-04-07T10:00:26;103049.09;;;10.37;33.59
79037;BME280;68434;59.896;30.474;2023-04-07T10:02:55;103046.56;;;10.48;33.91
79037;BME280;68434;59.896;30.474;2023-04-07T10:05:24;103050.38;;;10.46;33.97
79037;BME280;68434;59.896;30.474;2023-04-07T10:07:52;103037.53;;;10.35;33.41
79037;BME280;68434;59.896;30.474;2023-04-07T10:10:21;103042.53;;;10.27;33.84
79037;BME280;68434;59.896;30.474;2023-04-07T10:12:49;103041.28;;;10.33;33.86
79037;BME280;68434;59.896;30.474;2023-04-07T10:15:20;103038.84;;;10.42;33.71
79037;BME280;68434;59.896;30.474;2023-04-07T10:17:49;103031.56;;;10.57;34.03
79037;BME280;68434;59.896;30.474;2023-04-07T10:20:18;103038.16;;;10.39;33.93
79037;BME280;68434;59.896;30.474;2023-04-07T10:22:47;103032.97;;;10.36;34.06
79037;BME280;68434;59.896;30.474;2023-04-07T10:25:18;103028.63;;;10.33;34.25
79037;BME280;68434;59.896;30.474;2023-04-07T10:27:50;103029.94;;;10.40;34.29
79037;BME280;68434;59.896;30.474;2023-04-07T10:30:22;103021.94;;;10.53;33.95
79037;BME280;68434;59.896;30.474;2023-04-07T10:32:52;103027.88;;;10.17;34.35
79037;BME280;68434;59.896;30.474;2023-04-07T10:35:20;103025.47;;;10.27;34.43
79037;BME280;68434;59.896;30.474;2023-04-07T10:38:10;103027.44;;;10.37;33.52
79037;BME280;68434;59.896;30.474;2023-04-07T10:40:40;103007.00;;;10.19;34.15
79037;BME280;68434;59.896;30.474;2023-04-07T10:43:10;103026.69;;;10.35;33.98
79037;BME280;68434;59.896;30.474;2023-04-07T10:45:54;103025.31;;;10.56;34.49
79037;BME280;68434;59.896;30.474;2023-04-07T10:48:25;103030.22;;;10.64;33.65
79037;BME280;68434;59.896;30.474;2023-04-07T10:51:14;103017.84;;;10.60;33.37
79037;BME280;68434;59.896;30.474;2023-04-07T10:57:04;103015.22;;;10.72;33.38
79037;BME280;68434;59.896;30.474;2023-04-07T10:59:37;103014.53;;;10.69;33.12
79037;BME280;68434;59.896;30.474;2023-04-07T11:02:30;103010.00;;;10.69;32.99
79037;BME280;68434;59.896;30.474;2023-04-07T11:04:58;103017.09;;;10.58;33.18
79037;BME280;68434;59.896;30.474;2023-04-07T11:07:48;103009.00;;;10.44;33.14
79037;BME280;68434;59.896;30.474;2023-04-07T11:10:16;103006.28;;;10.30;33.70
79037;BME280;68434;59.896;30.474;2023-04-07T11:13:00;103012.63;;;10.57;33.65
79037;BME280;68434;59.896;30.474;2023-04-07T11:15:29;103004.00;;;10.64;33.52
79037;BME280;68434;59.896;30.474;2023-04-07T11:18:16;102998.66;;;10.77;33.12
79037;BME280;68434;59.896;30.474;2023-04-07T11:20:46;103003.19;;;10.76;33.67
79037;BME280;68434;59.896;30.474;2023-04-07T11:23:15;102998.16;;;10.84;32.84
79037;BME280;68434;59.896;30.474;2023-04-07T11:25:44;102999.53;;;10.77;32.53
79037;BME280;68434;59.896;30.474;2023-04-07T11:28:13;102992.31;;;10.90;33.34
79037;BME280;68434;59.896;30.474;2023-04-07T11:30:47;102998.00;;;11.00;32.97
79037;BME280;68434;59.896;30.474;2023-04-07T11:33:18;102994.72;;;10.95;32.96
79037;BME280;68434;59.896;30.474;2023-04-07T11:35:47;102993.84;;;10.94;33.04
79037;BME280;68434;59.896;30.474;2023-04-07T11:38:15;102989.03;;;10.85;33.42
79037;BME280;68434;59.896;30.474;2023-04-07T11:40:43;102985.28;;;10.88;32.80
79037;BME280;68434;59.896;30.474;2023-04-07T11:43:15;102990.41;;;10.92;32.71
79037;BME280;68434;59.896;30.474;2023-04-07T11:45:45;102983.28;;;11.04;32.92
79037;BME280;68434;59.896;30.474;2023-04-07T11:48:26;102981.09;;;10.96;32.67
79037;BME280;68434;59.896;30.474;2023-04-07T11:50:54;102975.50;;;11.12;32.82
79037;BME280;68434;59.896;30.474;2023-04-07T11:53:27;102978.94;;;11.01;32.72
79037;BME280;68434;59.896;30.474;2023-04-07T11:56:02;102969.94;;;11.01;32.70
79037;BME280;68434;59.896;30.474;2023-04-07T11:58:29;102972.91;;;11.10;32.48
79037;BME280;68434;59.896;30.474;2023-04-07T12:01:00;102964.03;;;11.21;32.66
79037;BME280;68434;59.896;30.474;2023-04-07T12:03:32;102971.22;;;10.95;32.54
79037;BME280;68434;59.896;30.474;2023-04-07T12:06:01;102965.63;;;11.11;32.64
79037;BME280;68434;59.896;30.474;2023-04-07T12:08:39;102964.53;;;11.01;32.48
79037;BME280;68434;59.896;30.474;2023-04-07T12:11:07;102958.31;;;10.99;32.63
79037;BME280;68434;59.896;30.474;2023-04-07T12:13:35;102961.25;;;10.96;32.62
79037;BME280;68434;59.896;30.474;2023-04-07T12:16:05;102956.19;;;11.04;32.34
79037;BME280;68434;59.896;30.474;2023-04-07T12:18:32;102951.22;;;11.23;32.66
79037;BME280;68434;59.896;30.474;2023-04-07T12:21:00;102944.13;;;11.34;32.71
79037;BME280;68434;59.896;30.474;2023-04-07T12:23:27;102949.31;;;11.37;32.71
79037;BME280;68434;59.896;30.474;2023-04-07T12:25:55;102945.84;;;11.35;32.18
79037;BME280;68434;59.896;30.474;2023-04-07T12:28:23;102948.75;;;11.32;32.00
79037;BME280;68434;59.896;30.474;2023-04-07T12:30:51;102944.44;;;11.30;31.95
79037;BME280;68434;59.896;30.474;2023-04-07T12:33:20;102948.03;;;11.43;31.58
79037;BME280;68434;59.896;30.474;2023-04-07T12:35:48;102947.34;;;11.39;32.19
79037;BME280;68434;59.896;30.474;2023-04-07T12:38:16;102942.38;;;11.46;32.43
79037;BME280;68434;59.896;30.474;2023-04-07T12:40:43;102947.69;;;11.48;31.48
79037;BME280;68434;59.896;30.474;2023-04-07T12:43:11;102937.09;;;11.57;32.11
79037;BME280;68434;59.896;30.474;2023-04-07T12:45:39;102945.09;;;11.46;31.60
79037;BME280;68434;59.896;30.474;2023-04-07T12:48:06;102945.41;;;11.41;31.85
79037;BME280;68434;59.896;30.474;2023-04-07T12:50:35;102942.03;;;11.38;32.13
79037;BME280;68434;59.896;30.474;2023-04-07T12:53:03;102940.34;;;11.50;31.26
79037;BME280;68434;59.896;30.474;2023-04-07T12:55:31;102936.63;;;11.51;31.75
79037;BME280;68434;59.896;30.474;2023-04-07T12:58:00;102935.88;;;11.61;32.10
79037;BME280;68434;59.896;30.474;2023-04-07T13:00:28;102938.84;;;11.71;31.68
79037;BME280;68434;59.896;30.474;2023-04-07T13:02:56;102935.59;;;11.66;31.81
79037;BME280;68434;59.896;30.474;2023-04-07T13:05:25;102934.25;;;11.59;32.38
79037;BME280;68434;59.896;30.474;2023-04-07T13:07:55;102926.66;;;11.51;31.97